Blessing, TX (77419)

3:57 AM CDT on September 19, 2014 (GMT -0500)
Palacios Municipal | Change Station
CLOSE
Current Station
Airport
Location: Palacios,
Elevation: 16 ft
Nearby Weather Stations
Active Advisory: Areal Flood Watch

Elev 16 ft 28.73 °N, 96.25 °W | Updated 4 minutes ago

Overcast
Overcast
82 °F
Feels Like 89 °F
N
7
Wind Variable Wind from South

Today
High -- | Low -- °F
--% Chance of Precip.
Yesterday
High -- | Low -- °F
Precip. -- in
7:11 AM 7:25 PM
Waning Crescent, 20% visible
Pressure 29.84 in
Visibility 10.0 miles
Clouds Scattered Clouds 2300 ft
Heat Index 89 °F
Dew Point 76 °F
Humidity 82%
Rainfall 0.00 in
Snow Depth Not available.
UV 0 out of 12
Pollen 7.30 out of 12
Air Quality Not available.
Flu Activity Not available.
METAR KPSX 190853Z AUTO 17006KT 10SM SCT023 28/24 A2984 RMK AO2 SLP104 T02780244 56002

More Conditions Fewer Conditions

Pressure 29.84 in
Visibility 10.0 miles
Clouds Scattered Clouds 2300 ft
Heat Index 89 °F
Dew Point 76 °F
Humidity 82%
Rainfall 0.00 in
Snow Depth Not available.
UV 0 out of 12
Pollen 7.30 out of 12
Air Quality Not available.
Flu Activity Not available.
METAR KPSX 190853Z AUTO 17006KT 10SM SCT023 28/24 A2984 RMK AO2 SLP104 T02780244 56002

More Conditions Fewer Conditions

10-Day Weather Forecast

Almanac

Astronomy

Sep. 19, 2014 Rise Set
Actual Time 7:11 AM CDT 7:25 PM CDT
Civil Twilight 6:48 AM CDT 7:48 PM CDT
Nautical Twilight 6:20 AM CDT 8:16 PM CDT
Astronomical Twilight 5:52 AM CDT 8:43 PM CDT
Moon 3:14 AM CDT 4:40 PM CDT
Length of Visible Light 13h 00m
Length of Day
12h 13m
Tomorrow will be 1m 43s shorter.
Waning Crescent, 20% of the Moon is Illuminated
Today
Waning Crescent
Sep 24
New
Oct 1
First Quarter
Oct 8
Full
Oct 15
Last Quarter

Today's Extremes

State Highs State Lows

Community

WunderPhotos

Upload Photos

1,754,581 photos uploaded!

Nearby

Snow Depth

Station Depth Elevation
No new snow has been reported.

Earthquake Activity

City Distance Mag. Time & Date
No recent earthquake activity has been reported nearby.
Minimum magnitude displayed is 2.5.

Coastal Water Temperatures

Place Temperature
Seadrift, TX 84.0 °F
Rockport, TX 86.0 °F
USCG Freeport, TX 82.9 °F

Nearby Weather Stations